Time;durP1;ratioP1;P1;durP2;ratioP2;P2;SDS_P1;SDS_P2;PMS_P1;PMS_P2;Temp;Humidity;BMP_temperature;BMP_pressure;BME280_temperature;BME280_humidity;BME280_pressure;Samples;Min_cycle;Max_cycle;Signal;HPM_P1;HPM_P2
2020/12/23 00:02:06;;;;;;;59.13;20.70;;;;;;;;;;723869;191;919795;-65
2020/12/23 00:04:32;;;;;;;44.83;23.60;;;;;;;;;;726294;191;918210;-66
2020/12/23 00:06:58;;;;;;;48.53;22.97;;;;;;;;;;723747;192;919365;-66
2020/12/23 00:09:24;;;;;;;45.83;22.83;;;;;;;;;;719129;192;919291;-66
2020/12/23 00:11:51;;;;;;;53.97;23.87;;;;;;;;;;725026;192;919136;-66
2020/12/23 00:14:16;;;;;;;48.47;22.30;;;;;;;;;;719537;192;1072727;-65
2020/12/23 00:16:42;;;;;;;57.33;22.93;;;;;;;;;;720455;192;923932;-66
2020/12/23 00:19:08;;;;;;;50.90;23.60;;;;;;;;;;724808;191;914885;-66
2020/12/23 00:21:34;;;;;;;54.23;22.30;;;;;;;;;;724389;191;916600;-66
2020/12/23 00:24:00;;;;;;;55.60;23.70;;;;;;;;;;725982;191;918454;-66
2020/12/23 00:26:26;;;;;;;57.43;23.57;;;;;;;;;;722268;191;920107;-65
2020/12/23 00:28:51;;;;;;;51.77;23.10;;;;;;;;;;727934;192;918435;-66
2020/12/23 00:31:17;;;;;;;61.90;26.80;;;;;;;;;;721739;191;918616;-65
2020/12/23 00:33:43;;;;;;;58.00;22.67;;;;;;;;;;725077;192;918408;-66
2020/12/23 00:36:11;;;;;;;57.30;21.93;;;;;;;;;;726499;192;1169187;-66
2020/12/23 00:38:37;;;;;;;57.70;22.57;;;;;;;;;;724850;192;918822;-66
2020/12/23 00:41:02;;;;;;;61.05;25.92;;;;;;;;;;718924;192;920105;-65
2020/12/23 00:43:28;;;;;;;62.03;24.70;;;;;;;;;;728749;191;920461;-66
2020/12/23 00:45:54;;;;;;;65.60;26.00;;;;;;;;;;720457;191;920017;-66
2020/12/23 00:48:20;;;;;;;65.13;27.37;;;;;;;;;;718385;192;982159;-65
2020/12/23 00:50:46;;;;;;;45.53;23.47;;;;;;;;;;721631;192;914201;-65
2020/12/23 00:53:12;;;;;;;64.07;26.10;;;;;;;;;;729614;191;917415;-65
2020/12/23 00:55:38;;;;;;;59.83;24.67;;;;;;;;;;723997;191;914730;-66
2020/12/23 00:58:04;;;;;;;53.83;23.90;;;;;;;;;;723593;192;916453;-65
2020/12/23 01:00:32;;;;;;;58.33;25.20;;;;;;;;;;728926;192;916027;-65
2020/12/23 01:02:58;;;;;;;49.80;21.30;;;;;;;;;;720514;191;941703;-65
2020/12/23 01:05:24;;;;;;;51.13;23.70;;;;;;;;;;722790;192;919971;-66
2020/12/23 01:07:50;;;;;;;59.40;21.00;;;;;;;;;;724687;191;918935;-65
2020/12/23 01:10:16;;;;;;;47.60;23.37;;;;;;;;;;718804;193;919293;-66
2020/12/23 01:12:41;;;;;;;60.00;24.37;;;;;;;;;;720208;192;919059;-66
2020/12/23 01:15:07;;;;;;;62.40;24.73;;;;;;;;;;719821;192;919452;-65
2020/12/23 01:17:33;;;;;;;54.70;22.77;;;;;;;;;;726075;192;919329;-66
2020/12/23 01:19:59;;;;;;;59.73;23.63;;;;;;;;;;724055;192;918768;-66
2020/12/23 01:22:25;;;;;;;48.03;21.07;;;;;;;;;;720217;191;919037;-66
2020/12/23 01:24:51;;;;;;;47.93;21.60;;;;;;;;;;726461;191;919038;-66
2020/12/23 01:27:17;;;;;;;52.20;24.30;;;;;;;;;;721232;192;919299;-66
2020/12/23 01:29:43;;;;;;;41.20;20.80;;;;;;;;;;722802;192;918775;-66
2020/12/23 01:32:08;;;;;;;40.63;22.07;;;;;;;;;;725890;192;919095;-66
2020/12/23 01:34:34;;;;;;;55.60;23.05;;;;;;;;;;724641;192;919580;-66
2020/12/23 01:37:02;;;;;;;42.77;19.43;;;;;;;;;;725653;190;918727;-68
2020/12/23 01:39:28;;;;;;;48.87;20.40;;;;;;;;;;724367;192;918066;-65
2020/12/23 01:41:56;;;;;;;55.03;22.90;;;;;;;;;;732017;192;918806;-65
2020/12/23 01:44:22;;;;;;;46.17;23.10;;;;;;;;;;721633;192;1171852;-65
2020/12/23 01:46:48;;;;;;;56.67;23.50;;;;;;;;;;724103;191;918954;-65
2020/12/23 01:49:14;;;;;;;41.03;20.77;;;;;;;;;;725130;192;1012773;-65
2020/12/23 01:51:40;;;;;;;50.63;21.90;;;;;;;;;;724416;192;919121;-65
2020/12/23 01:54:05;;;;;;;51.70;22.45;;;;;;;;;;721473;192;919248;-65
2020/12/23 01:56:31;;;;;;;51.27;21.77;;;;;;;;;;727028;192;933684;-65
2020/12/23 01:58:57;;;;;;;42.90;21.33;;;;;;;;;;723154;192;919359;-65
2020/12/23 02:01:23;;;;;;;47.80;21.90;;;;;;;;;;725925;191;918607;-65
2020/12/23 02:03:49;;;;;;;47.47;19.57;;;;;;;;;;720875;192;919806;-63
2020/12/23 02:06:15;;;;;;;50.07;22.70;;;;;;;;;;730504;191;919363;-65
2020/12/23 02:08:41;;;;;;;46.63;19.73;;;;;;;;;;721366;191;918009;-65
2020/12/23 02:11:10;;;;;;;51.43;20.03;;;;;;;;;;723625;191;919343;-65
2020/12/23 02:13:36;;;;;;;45.33;21.50;;;;;;;;;;724057;191;918701;-65
2020/12/23 02:16:02;;;;;;;43.60;22.20;;;;;;;;;;720061;191;918980;-66
2020/12/23 02:18:28;;;;;;;54.67;20.07;;;;;;;;;;723429;191;918444;-65
2020/12/23 02:20:55;;;;;;;49.92;22.92;;;;;;;;;;724490;192;922261;-65
2020/12/23 02:23:21;;;;;;;56.53;23.40;;;;;;;;;;725111;192;918906;-65
2020/12/23 02:25:47;;;;;;;56.78;23.77;;;;;;;;;;721274;191;919490;-65
2020/12/23 02:28:12;;;;;;;43.17;21.53;;;;;;;;;;723015;192;920130;-65
2020/12/23 02:30:38;;;;;;;44.07;22.93;;;;;;;;;;724554;192;1332460;-65
2020/12/23 02:33:04;;;;;;;46.20;22.37;;;;;;;;;;725311;191;930247;-65
2020/12/23 02:35:30;;;;;;;45.67;19.30;;;;;;;;;;721317;191;918396;-65
2020/12/23 02:37:56;;;;;;;42.17;22.57;;;;;;;;;;729033;191;918975;-65
2020/12/23 02:40:22;;;;;;;52.13;22.20;;;;;;;;;;721499;191;919012;-65
2020/12/23 02:42:47;;;;;;;42.67;21.37;;;;;;;;;;723154;191;919956;-65
2020/12/23 02:45:13;;;;;;;54.40;22.10;;;;;;;;;;726764;192;918524;-65
2020/12/23 02:47:39;;;;;;;42.00;21.63;;;;;;;;;;724234;192;919565;-65
2020/12/23 02:50:05;;;;;;;40.97;20.58;;;;;;;;;;722264;191;923425;-65
2020/12/23 02:52:31;;;;;;;45.20;20.97;;;;;;;;;;726747;191;917732;-64
2020/12/23 02:54:57;;;;;;;48.83;20.20;;;;;;;;;;730754;191;917384;-67
2020/12/23 02:57:23;;;;;;;48.13;23.43;;;;;;;;;;721728;191;918950;-65
2020/12/23 02:59:49;;;;;;;48.07;21.17;;;;;;;;;;724117;192;918619;-65
2020/12/23 03:02:15;;;;;;;43.93;21.37;;;;;;;;;;722136;192;918803;-65
2020/12/23 03:04:41;;;;;;;40.07;20.40;;;;;;;;;;723665;191;919152;-66
2020/12/23 03:07:07;;;;;;;49.53;21.27;;;;;;;;;;721301;191;918918;-65
2020/12/23 03:09:32;;;;;;;45.67;19.47;;;;;;;;;;724726;192;913741;-66
2020/12/23 03:11:58;;;;;;;43.27;22.83;;;;;;;;;;718926;192;1366475;-66
2020/12/23 03:14:24;;;;;;;46.27;20.60;;;;;;;;;;724458;191;919226;-66
2020/12/23 03:16:50;;;;;;;43.45;18.75;;;;;;;;;;721670;192;919572;-65
2020/12/23 03:19:16;;;;;;;41.00;19.37;;;;;;;;;;717176;193;918572;-66
2020/12/23 03:21:42;;;;;;;40.57;18.93;;;;;;;;;;720335;192;919214;-66
2020/12/23 03:24:08;;;;;;;41.47;19.47;;;;;;;;;;721966;192;919171;-66
2020/12/23 03:26:34;;;;;;;46.63;21.43;;;;;;;;;;726206;191;919399;-65
2020/12/23 03:28:59;;;;;;;39.55;21.00;;;;;;;;;;725722;192;918632;-65
2020/12/23 03:31:28;;;;;;;40.43;19.70;;;;;;;;;;720285;192;919035;-67
2020/12/23 03:33:52;;;;;;;43.37;19.97;;;;;;;;;;728228;192;918109;-65
2020/12/23 03:36:18;;;;;;;47.58;20.17;;;;;;;;;;724261;192;918577;-66
2020/12/23 03:38:43;;;;;;;51.10;22.77;;;;;;;;;;721748;191;918493;-66
2020/12/23 03:41:09;;;;;;;38.97;21.30;;;;;;;;;;726592;192;917978;-66
2020/12/23 03:43:35;;;;;;;53.00;21.60;;;;;;;;;;720304;191;919524;-65
2020/12/23 03:46:01;;;;;;;43.22;22.67;;;;;;;;;;721729;191;965935;-65
2020/12/23 03:48:27;;;;;;;45.13;22.40;;;;;;;;;;719865;192;926258;-65
2020/12/23 03:50:53;;;;;;;41.40;20.67;;;;;;;;;;728916;192;918754;-66
2020/12/23 03:53:18;;;;;;;42.80;20.80;;;;;;;;;;719497;192;945331;-66
2020/12/23 03:55:44;;;;;;;48.20;21.20;;;;;;;;;;722801;192;919350;-66
2020/12/23 03:58:10;;;;;;;46.03;21.37;;;;;;;;;;726502;191;918767;-65
2020/12/23 04:00:36;;;;;;;42.53;19.97;;;;;;;;;;727242;191;919220;-66
2020/12/23 04:03:02;;;;;;;45.70;21.43;;;;;;;;;;721730;192;919117;-65
2020/12/23 04:05:28;;;;;;;43.87;19.93;;;;;;;;;;729218;191;919201;-65
2020/12/23 04:07:54;;;;;;;39.23;18.80;;;;;;;;;;722706;192;919958;-67
2020/12/23 04:10:20;;;;;;;50.23;21.93;;;;;;;;;;722510;192;919278;-65
2020/12/23 04:12:45;;;;;;;44.77;21.90;;;;;;;;;;721999;192;921189;-65
2020/12/23 04:15:11;;;;;;;44.60;20.07;;;;;;;;;;712670;194;919257;-66
2020/12/23 04:17:37;;;;;;;42.43;20.13;;;;;;;;;;722273;192;919463;-66
2020/12/23 04:20:04;;;;;;;40.35;20.48;;;;;;;;;;720431;191;1049270;-66
2020/12/23 04:22:30;;;;;;;40.37;20.47;;;;;;;;;;729709;192;919809;-66
2020/12/23 04:24:56;;;;;;;35.93;18.03;;;;;;;;;;721963;192;919821;-66
2020/12/23 04:27:22;;;;;;;43.70;21.30;;;;;;;;;;723709;191;920737;-66
2020/12/23 04:29:47;;;;;;;52.57;27.07;;;;;;;;;;724070;192;921197;-66
2020/12/23 04:32:13;;;;;;;69.40;35.20;;;;;;;;;;724028;192;915056;-66
2020/12/23 04:34:39;;;;;;;39.87;22.90;;;;;;;;;;719588;192;915479;-65
2020/12/23 04:37:05;;;;;;;45.57;21.93;;;;;;;;;;725021;192;1017820;-66
2020/12/23 04:39:31;;;;;;;45.17;23.47;;;;;;;;;;720138;191;916307;-66
2020/12/23 04:41:57;;;;;;;46.08;20.60;;;;;;;;;;723783;192;932189;-65
2020/12/23 04:44:23;;;;;;;44.73;25.57;;;;;;;;;;720010;191;918225;-68
2020/12/23 04:46:49;;;;;;;43.58;25.02;;;;;;;;;;728627;191;919277;-66
2020/12/23 04:49:15;;;;;;;42.40;21.87;;;;;;;;;;722825;191;919424;-65
2020/12/23 04:51:41;;;;;;;40.33;20.53;;;;;;;;;;718739;191;920679;-66
2020/12/23 04:54:06;;;;;;;34.57;20.50;;;;;;;;;;727064;191;924043;-67
2020/12/23 04:56:32;;;;;;;44.17;21.47;;;;;;;;;;719658;192;921775;-66
2020/12/23 04:58:58;;;;;;;34.77;19.80;;;;;;;;;;722743;191;918775;-66
2020/12/23 05:01:24;;;;;;;33.37;19.00;;;;;;;;;;724680;192;919792;-66
2020/12/23 05:03:50;;;;;;;40.53;18.60;;;;;;;;;;720672;192;923993;-66
2020/12/23 05:06:16;;;;;;;35.10;18.53;;;;;;;;;;720880;192;1143698;-66
2020/12/23 05:08:42;;;;;;;30.13;16.90;;;;;;;;;;721556;191;916258;-66
2020/12/23 05:11:08;;;;;;;32.60;17.53;;;;;;;;;;721759;191;914874;-66
2020/12/23 05:13:35;;;;;;;19.47;11.13;;;;;;;;;;726127;192;915320;-67
2020/12/23 05:16:00;;;;;;;19.03;11.37;;;;;;;;;;723477;191;914903;-64
2020/12/23 05:18:31;;;;;;;20.40;13.00;;;;;;;;;;730388;192;916442;-66
2020/12/23 05:20:57;;;;;;;22.00;12.67;;;;;;;;;;720410;192;919069;-66
2020/12/23 05:23:23;;;;;;;25.40;13.50;;;;;;;;;;723685;191;919545;-66
2020/12/23 05:25:49;;;;;;;22.77;12.45;;;;;;;;;;724697;192;1078572;-66
2020/12/23 05:28:16;;;;;;;20.93;13.93;;;;;;;;;;723429;194;918527;-65
2020/12/23 05:30:41;;;;;;;21.20;14.00;;;;;;;;;;719460;193;919342;-65
2020/12/23 05:33:07;;;;;;;25.67;13.77;;;;;;;;;;721713;192;918541;-65
2020/12/23 05:35:33;;;;;;;26.40;14.77;;;;;;;;;;729866;192;918794;-66
2020/12/23 05:37:59;;;;;;;26.00;13.77;;;;;;;;;;721829;192;918148;-65
2020/12/23 05:40:24;;;;;;;26.75;14.77;;;;;;;;;;724343;192;917830;-66
2020/12/23 05:42:50;;;;;;;34.10;15.63;;;;;;;;;;727795;191;919016;-66
2020/12/23 05:45:16;;;;;;;28.30;14.43;;;;;;;;;;723172;192;924108;-65
2020/12/23 05:47:42;;;;;;;38.88;16.90;;;;;;;;;;720538;192;1294436;-66
2020/12/23 05:50:08;;;;;;;29.93;15.60;;;;;;;;;;725114;192;915488;-65
2020/12/23 05:52:34;;;;;;;33.13;17.57;;;;;;;;;;719552;191;915729;-65
2020/12/23 05:54:59;;;;;;;44.63;18.07;;;;;;;;;;722527;192;916371;-66
2020/12/23 05:57:25;;;;;;;38.70;18.13;;;;;;;;;;720527;191;912934;-65
2020/12/23 05:59:51;;;;;;;31.33;16.47;;;;;;;;;;728960;192;917874;-65
2020/12/23 06:02:17;;;;;;;35.83;17.43;;;;;;;;;;720211;191;920429;-66
2020/12/23 06:04:43;;;;;;;33.03;16.10;;;;;;;;;;721274;191;918242;-65
2020/12/23 06:07:09;;;;;;;38.57;17.10;;;;;;;;;;728349;191;916768;-64
2020/12/23 06:09:36;;;;;;;34.53;16.30;;;;;;;;;;711838;191;928018;-65
2020/12/23 06:12:02;;;;;;;36.73;17.07;;;;;;;;;;712955;195;915470;-65
2020/12/23 06:14:28;;;;;;;32.93;16.27;;;;;;;;;;712472;195;915690;-65
2020/12/23 06:16:53;;;;;;;32.90;14.83;;;;;;;;;;711528;195;917579;-67
2020/12/23 06:19:27;;;;;;;39.10;15.20;;;;;;;;;;707958;195;919210;-67
2020/12/23 06:21:53;;;;;;;26.30;14.77;;;;;;;;;;708760;195;919146;-67
2020/12/23 06:24:19;;;;;;;30.17;13.47;;;;;;;;;;714623;194;917796;-67
2020/12/23 06:26:45;;;;;;;27.42;14.93;;;;;;;;;;710507;195;919184;-68
2020/12/23 06:29:10;;;;;;;29.00;16.17;;;;;;;;;;708965;195;919158;-67
2020/12/23 06:31:43;;;;;;;26.27;14.93;;;;;;;;;;717858;195;919324;-67
2020/12/23 06:34:09;;;;;;;29.43;15.10;;;;;;;;;;711554;195;918489;-65
2020/12/23 06:36:35;;;;;;;26.90;13.77;;;;;;;;;;707187;195;919937;-65
2020/12/23 06:39:07;;;;;;;28.95;14.95;;;;;;;;;;709772;195;921289;-65
2020/12/23 06:41:32;;;;;;;23.00;15.30;;;;;;;;;;716136;195;927167;-65
2020/12/23 06:44:00;;;;;;;28.60;14.77;;;;;;;;;;709772;194;924575;-65
2020/12/23 06:46:24;;;;;;;28.20;14.10;;;;;;;;;;711305;195;919157;-65
2020/12/23 06:48:50;;;;;;;26.97;16.07;;;;;;;;;;712054;194;924739;-65
2020/12/23 06:51:22;;;;;;;32.00;15.63;;;;;;;;;;712443;195;918393;-65
2020/12/23 06:53:47;;;;;;;33.60;16.90;;;;;;;;;;712298;195;918908;-65
2020/12/23 06:56:13;;;;;;;26.30;15.90;;;;;;;;;;710423;195;1037836;-65
2020/12/23 06:58:39;;;;;;;28.30;16.77;;;;;;;;;;712981;195;918918;-65
2020/12/23 07:01:11;;;;;;;31.97;16.80;;;;;;;;;;708989;195;919047;-65
2020/12/23 07:03:36;;;;;;;33.57;17.53;;;;;;;;;;711113;195;919533;-65
2020/12/23 07:06:02;;;;;;;30.30;15.53;;;;;;;;;;707783;195;919207;-64
2020/12/23 07:08:28;;;;;;;28.10;15.73;;;;;;;;;;713987;195;919713;-65
2020/12/23 07:10:54;;;;;;;31.13;17.57;;;;;;;;;;708056;195;919169;-64
2020/12/23 07:13:20;;;;;;;27.13;16.27;;;;;;;;;;708701;195;919219;-64
2020/12/23 07:15:53;;;;;;;37.20;18.60;;;;;;;;;;712860;195;918350;-66
2020/12/23 07:18:18;;;;;;;25.83;16.40;;;;;;;;;;713507;196;917038;-65
2020/12/23 07:20:47;;;;;;;40.20;20.13;;;;;;;;;;699155;195;2134772;-65
2020/12/23 07:23:13;;;;;;;39.97;18.57;;;;;;;;;;710608;195;919232;-65
2020/12/23 07:25:41;;;;;;;31.10;18.57;;;;;;;;;;713452;195;918828;-65
2020/12/23 07:28:07;;;;;;;34.60;17.17;;;;;;;;;;711037;195;918064;-65
2020/12/23 07:30:32;;;;;;;36.10;18.67;;;;;;;;;;710540;195;919340;-65
2020/12/23 07:33:01;;;;;;;38.70;19.70;;;;;;;;;;711248;195;919290;-65
2020/12/23 07:35:27;;;;;;;34.13;19.53;;;;;;;;;;705561;196;918649;-65
2020/12/23 07:37:52;;;;;;;31.20;19.07;;;;;;;;;;711294;194;950161;-66
2020/12/23 07:40:18;;;;;;;27.60;19.30;;;;;;;;;;709868;195;918818;-65
2020/12/23 07:42:47;;;;;;;36.83;20.40;;;;;;;;;;709950;195;2095384;-65
2020/12/23 07:45:13;;;;;;;39.00;19.03;;;;;;;;;;713026;195;927140;-65
2020/12/23 07:47:39;;;;;;;32.17;19.20;;;;;;;;;;709513;195;918906;-65
2020/12/23 07:50:04;;;;;;;28.37;17.90;;;;;;;;;;715170;195;918923;-65
2020/12/23 07:52:30;;;;;;;42.30;19.83;;;;;;;;;;710194;195;927470;-65
2020/12/23 07:54:56;;;;;;;35.17;20.17;;;;;;;;;;710462;195;919804;-65
2020/12/23 07:57:27;;;;;;;38.23;20.43;;;;;;;;;;704488;195;919152;-64
2020/12/23 07:59:53;;;;;;;37.17;20.47;;;;;;;;;;715671;195;918532;-66
2020/12/23 08:02:19;;;;;;;40.23;20.30;;;;;;;;;;702926;195;2496097;-65
2020/12/23 08:04:45;;;;;;;41.70;21.50;;;;;;;;;;712509;194;923286;-67
2020/12/23 08:07:11;;;;;;;35.57;22.07;;;;;;;;;;713181;195;918344;-66
2020/12/23 08:09:37;;;;;;;36.13;20.07;;;;;;;;;;709507;195;919291;-65
2020/12/23 08:12:06;;;;;;;38.27;20.77;;;;;;;;;;712725;195;918597;-66
2020/12/23 08:14:29;;;;;;;39.63;21.23;;;;;;;;;;708355;195;919035;-64
2020/12/23 08:16:57;;;;;;;35.60;20.10;;;;;;;;;;711345;197;918914;-65
2020/12/23 08:19:23;;;;;;;35.00;20.20;;;;;;;;;;709174;195;919559;-65
2020/12/23 08:21:49;;;;;;;37.90;20.90;;;;;;;;;;710335;195;918890;-65
2020/12/23 08:24:15;;;;;;;35.00;20.97;;;;;;;;;;708623;195;2149980;-65
2020/12/23 08:26:41;;;;;;;38.33;20.80;;;;;;;;;;712630;195;1020966;-65
2020/12/23 08:29:07;;;;;;;30.33;19.47;;;;;;;;;;709614;195;919977;-65
2020/12/23 08:31:33;;;;;;;39.97;19.97;;;;;;;;;;714102;195;919105;-65
2020/12/23 08:33:58;;;;;;;33.35;18.87;;;;;;;;;;709601;195;920893;-65
2020/12/23 08:36:24;;;;;;;37.13;20.23;;;;;;;;;;712448;195;915303;-65
2020/12/23 08:38:52;;;;;;;31.70;18.90;;;;;;;;;;708696;195;920771;-65
2020/12/23 08:41:18;;;;;;;29.23;20.40;;;;;;;;;;708301;195;916437;-65
2020/12/23 08:43:43;;;;;;;37.57;21.00;;;;;;;;;;709900;195;918474;-65
2020/12/23 08:46:09;;;;;;;31.93;18.73;;;;;;;;;;713130;194;929002;-65
2020/12/23 08:48:36;;;;;;;36.53;20.57;;;;;;;;;;713979;195;919182;-66
2020/12/23 08:51:02;;;;;;;38.37;20.37;;;;;;;;;;710160;195;919207;-64
2020/12/23 08:53:28;;;;;;;32.33;18.63;;;;;;;;;;712471;195;918450;-65
2020/12/23 08:55:54;;;;;;;36.72;21.95;;;;;;;;;;713952;195;918593;-65
2020/12/23 08:58:20;;;;;;;29.50;19.17;;;;;;;;;;711460;194;920426;-64
2020/12/23 09:00:46;;;;;;;26.73;17.77;;;;;;;;;;708851;195;936371;-64
2020/12/23 09:03:12;;;;;;;28.10;16.90;;;;;;;;;;711520;194;918244;-65
2020/12/23 09:05:38;;;;;;;29.00;17.83;;;;;;;;;;707529;195;918664;-65
2020/12/23 09:08:05;;;;;;;25.60;16.77;;;;;;;;;;712561;194;917981;-65
2020/12/23 09:10:31;;;;;;;32.47;16.85;;;;;;;;;;699377;194;2550410;-64
2020/12/23 09:13:03;;;;;;;29.73;17.50;;;;;;;;;;715713;195;918550;-65
2020/12/23 09:15:29;;;;;;;27.90;17.27;;;;;;;;;;710877;195;919310;-65
2020/12/23 09:17:54;;;;;;;28.53;16.77;;;;;;;;;;710663;195;919242;-64
2020/12/23 09:20:20;;;;;;;27.23;17.08;;;;;;;;;;706682;195;918697;-65
2020/12/23 09:22:46;;;;;;;25.50;15.87;;;;;;;;;;710743;197;917919;-65
2020/12/23 09:25:15;;;;;;;27.27;16.27;;;;;;;;;;706099;195;920455;-65
2020/12/23 09:27:41;;;;;;;28.00;17.33;;;;;;;;;;712248;195;915980;-64
2020/12/23 09:30:06;;;;;;;26.77;16.43;;;;;;;;;;714255;195;916366;-65
2020/12/23 09:32:32;;;;;;;24.03;15.37;;;;;;;;;;710509;195;919890;-64
2020/12/23 09:35:04;;;;;;;25.90;16.00;;;;;;;;;;710719;195;919183;-65
2020/12/23 09:37:30;;;;;;;22.87;14.40;;;;;;;;;;707327;195;922386;-64
2020/12/23 09:39:56;;;;;;;22.70;15.20;;;;;;;;;;716201;195;918863;-64
2020/12/23 09:42:22;;;;;;;23.50;15.77;;;;;;;;;;709955;195;918701;-64
2020/12/23 09:44:48;;;;;;;27.53;17.00;;;;;;;;;;712348;195;919185;-65
2020/12/23 09:47:14;;;;;;;22.17;15.60;;;;;;;;;;714390;195;918823;-65
2020/12/23 09:49:39;;;;;;;28.83;17.00;;;;;;;;;;711937;195;919320;-68
2020/12/23 09:52:05;;;;;;;21.47;15.50;;;;;;;;;;709109;195;919004;-64
2020/12/23 09:54:31;;;;;;;25.88;15.95;;;;;;;;;;714864;195;918907;-64
2020/12/23 09:56:57;;;;;;;24.30;15.60;;;;;;;;;;709421;194;918018;-65
2020/12/23 09:59:23;;;;;;;21.02;15.77;;;;;;;;;;711649;195;919090;-65
2020/12/23 10:01:49;;;;;;;18.90;14.93;;;;;;;;;;708982;195;920201;-65
2020/12/23 10:04:15;;;;;;;25.07;14.80;;;;;;;;;;710746;196;933610;-65
2020/12/23 10:06:40;;;;;;;20.33;13.90;;;;;;;;;;708118;195;919053;-65
2020/12/23 10:09:06;;;;;;;22.23;16.00;;;;;;;;;;710678;195;919081;-64
2020/12/23 10:11:32;;;;;;;26.07;16.43;;;;;;;;;;715639;195;918911;-65
2020/12/23 10:13:59;;;;;;;19.67;14.43;;;;;;;;;;709641;194;919811;-65
2020/12/23 10:16:40;;;;;;;21.90;14.77;;;;;;;;;;710808;195;918875;-65
2020/12/23 10:19:06;;;;;;;21.90;16.07;;;;;;;;;;710818;195;919166;-64
2020/12/23 10:21:31;;;;;;;25.90;16.53;;;;;;;;;;717224;195;918557;-64
2020/12/23 10:23:57;;;;;;;23.30;16.17;;;;;;;;;;709874;194;1021952;-66
2020/12/23 10:26:23;;;;;;;24.45;15.02;;;;;;;;;;711796;195;918042;-64
2020/12/23 10:28:49;;;;;;;24.70;15.67;;;;;;;;;;714649;195;919059;-64
2020/12/23 10:31:15;;;;;;;21.87;15.57;;;;;;;;;;712519;195;919529;-65
2020/12/23 10:33:41;;;;;;;21.40;15.97;;;;;;;;;;710415;195;918897;-65
2020/12/23 10:36:06;;;;;;;25.47;17.00;;;;;;;;;;709408;195;919596;-64
2020/12/23 10:38:33;;;;;;;27.70;16.50;;;;;;;;;;709368;195;809619;-64
2020/12/23 10:40:58;;;;;;;22.67;16.80;;;;;;;;;;711426;195;919239;-64
2020/12/23 10:43:24;;;;;;;22.27;15.77;;;;;;;;;;708564;195;920616;-64
2020/12/23 10:45:50;;;;;;;19.83;15.63;;;;;;;;;;716026;195;919335;-64
2020/12/23 10:48:16;;;;;;;21.70;17.03;;;;;;;;;;711965;195;920747;-64
2020/12/23 10:50:42;;;;;;;21.33;15.57;;;;;;;;;;709933;195;919256;-64
2020/12/23 10:53:07;;;;;;;18.67;14.48;;;;;;;;;;715806;195;919179;-65
2020/12/23 10:55:33;;;;;;;22.63;15.73;;;;;;;;;;710191;195;941310;-64
2020/12/23 10:57:59;;;;;;;25.93;17.67;;;;;;;;;;711727;195;918905;-64
2020/12/23 11:00:25;;;;;;;26.52;16.20;;;;;;;;;;700184;195;2962571;-64
2020/12/23 11:02:51;;;;;;;26.10;17.80;;;;;;;;;;710733;195;918692;-65
2020/12/23 11:05:17;;;;;;;27.10;19.43;;;;;;;;;;708607;195;918702;-64
2020/12/23 11:07:43;;;;;;;25.60;18.03;;;;;;;;;;712056;194;918493;-64
2020/12/23 11:10:09;;;;;;;28.43;18.33;;;;;;;;;;716214;194;917792;-65
2020/12/23 11:12:35;;;;;;;23.13;16.70;;;;;;;;;;712842;195;918667;-64
2020/12/23 11:15:00;;;;;;;20.73;16.00;;;;;;;;;;712278;195;919271;-64
2020/12/23 11:17:26;;;;;;;26.17;16.20;;;;;;;;;;717432;195;919253;-64
2020/12/23 11:19:54;;;;;;;26.27;17.67;;;;;;;;;;710960;195;917967;-64
2020/12/23 11:22:18;;;;;;;24.40;16.30;;;;;;;;;;708960;195;919463;-64
2020/12/23 11:24:46;;;;;;;31.90;18.53;;;;;;;;;;714301;194;920030;-65
2020/12/23 11:27:12;;;;;;;27.73;19.10;;;;;;;;;;710499;195;916554;-64
2020/12/23 11:29:38;;;;;;;27.73;18.60;;;;;;;;;;711986;194;916197;-64
2020/12/23 11:32:04;;;;;;;27.90;19.07;;;;;;;;;;708550;195;918425;-64
2020/12/23 11:34:29;;;;;;;26.93;16.80;;;;;;;;;;717578;195;919356;-64
2020/12/23 11:36:55;;;;;;;26.43;17.97;;;;;;;;;;707520;195;918722;-64
2020/12/23 11:39:21;;;;;;;29.13;19.30;;;;;;;;;;710643;195;1123384;-65
2020/12/23 11:41:47;;;;;;;28.90;17.60;;;;;;;;;;713258;195;918948;-64
2020/12/23 11:44:13;;;;;;;27.07;18.77;;;;;;;;;;708308;195;919192;-64
2020/12/23 11:46:39;;;;;;;31.20;18.30;;;;;;;;;;708316;195;918798;-64
2020/12/23 11:49:05;;;;;;;25.63;20.27;;;;;;;;;;714952;195;918652;-64
2020/12/23 11:51:30;;;;;;;26.10;18.40;;;;;;;;;;710153;195;1031860;-64
2020/12/23 11:53:57;;;;;;;25.60;17.40;;;;;;;;;;709718;195;919486;-64
2020/12/23 11:56:22;;;;;;;28.10;18.40;;;;;;;;;;708929;195;918874;-66
2020/12/23 11:58:48;;;;;;;27.10;18.47;;;;;;;;;;703716;197;918050;-64
2020/12/23 12:01:14;;;;;;;35.70;21.20;;;;;;;;;;707371;195;919470;-64
2020/12/23 12:03:40;;;;;;;22.60;16.93;;;;;;;;;;710798;195;919693;-64
2020/12/23 12:06:05;;;;;;;29.10;20.27;;;;;;;;;;716462;195;918727;-64
2020/12/23 12:08:34;;;;;;;27.27;19.97;;;;;;;;;;709583;195;1083592;-64
2020/12/23 12:10:57;;;;;;;32.80;20.73;;;;;;;;;;712424;195;919068;-64
2020/12/23 12:13:23;;;;;;;24.60;17.30;;;;;;;;;;711853;195;919111;-64
2020/12/23 12:15:49;;;;;;;31.60;19.07;;;;;;;;;;712334;195;919106;-64
2020/12/23 12:18:15;;;;;;;29.70;20.70;;;;;;;;;;711120;195;918766;-64
2020/12/23 12:20:41;;;;;;;29.63;21.50;;;;;;;;;;716391;193;918243;-62
2020/12/23 12:23:07;;;;;;;29.20;21.10;;;;;;;;;;709872;197;918819;-64
2020/12/23 12:25:34;;;;;;;32.60;21.10;;;;;;;;;;711385;195;919785;-64
2020/12/23 12:28:01;;;;;;;33.00;19.67;;;;;;;;;;710162;194;918770;-63
2020/12/23 12:30:26;;;;;;;26.80;19.13;;;;;;;;;;718266;195;921876;-64
2020/12/23 12:32:51;;;;;;;26.60;20.00;;;;;;;;;;709507;194;919453;-64
2020/12/23 12:35:17;;;;;;;31.00;19.77;;;;;;;;;;711505;194;919095;-64
2020/12/23 12:37:43;;;;;;;29.00;21.80;;;;;;;;;;713885;195;920288;-64
2020/12/23 12:40:09;;;;;;;32.30;21.43;;;;;;;;;;711477;194;919080;-63
2020/12/23 12:42:35;;;;;;;35.17;21.93;;;;;;;;;;711437;194;915547;-64
2020/12/23 12:45:01;;;;;;;32.00;20.70;;;;;;;;;;713704;194;915293;-64
2020/12/23 12:47:26;;;;;;;37.57;22.77;;;;;;;;;;711066;194;919192;-64
2020/12/23 12:49:52;;;;;;;31.43;21.77;;;;;;;;;;710225;194;918294;-64
2020/12/23 12:52:18;;;;;;;29.50;22.80;;;;;;;;;;710820;194;919787;-64
2020/12/23 12:54:44;;;;;;;35.27;20.87;;;;;;;;;;713053;194;1003091;-64
2020/12/23 12:57:10;;;;;;;32.43;21.70;;;;;;;;;;711404;195;918477;-66
2020/12/23 12:59:39;;;;;;;29.90;22.15;;;;;;;;;;708444;195;919214;-64
2020/12/23 13:02:02;;;;;;;34.40;21.00;;;;;;;;;;715881;195;918971;-64
2020/12/23 13:04:27;;;;;;;34.70;22.10;;;;;;;;;;706155;195;919240;-64
2020/12/23 13:06:53;;;;;;;31.63;21.37;;;;;;;;;;710622;195;928842;-64
2020/12/23 13:09:19;;;;;;;36.03;22.17;;;;;;;;;;712762;195;919176;-64
2020/12/23 13:11:45;;;;;;;34.93;24.03;;;;;;;;;;713179;195;923705;-64
2020/12/23 13:14:11;;;;;;;34.78;23.25;;;;;;;;;;708370;195;1026402;-64
2020/12/23 13:16:37;;;;;;;36.77;23.53;;;;;;;;;;710122;195;919136;-64
2020/12/23 13:19:03;;;;;;;35.13;23.77;;;;;;;;;;705008;196;919678;-65
2020/12/23 13:21:29;;;;;;;35.00;23.80;;;;;;;;;;708802;195;1021794;-64
2020/12/23 13:23:55;;;;;;;45.03;23.93;;;;;;;;;;709843;195;1123197;-64
2020/12/23 13:26:21;;;;;;;34.83;24.17;;;;;;;;;;714939;195;816255;-64
2020/12/23 13:28:50;;;;;;;37.53;23.85;;;;;;;;;;710572;195;918887;-66
2020/12/23 13:31:12;;;;;;;33.30;22.40;;;;;;;;;;708559;195;919161;-64
2020/12/23 13:33:38;;;;;;;30.20;21.23;;;;;;;;;;716338;195;918671;-64
2020/12/23 13:36:04;;;;;;;33.20;22.03;;;;;;;;;;704473;195;2467503;-64
2020/12/23 13:38:30;;;;;;;29.10;19.67;;;;;;;;;;712659;194;919550;-64
2020/12/23 13:40:56;;;;;;;30.03;20.43;;;;;;;;;;714888;195;877145;-65
2020/12/23 13:43:23;;;;;;;24.87;18.10;;;;;;;;;;711315;195;918800;-64
2020/12/23 13:45:47;;;;;;;27.90;18.77;;;;;;;;;;709698;195;919081;-65
2020/12/23 13:48:13;;;;;;;33.20;21.47;;;;;;;;;;712062;195;918569;-64
2020/12/23 13:50:39;;;;;;;28.97;22.60;;;;;;;;;;715811;195;914124;-65
2020/12/23 13:53:06;;;;;;;35.33;24.20;;;;;;;;;;715914;194;919326;-64
2020/12/23 13:55:31;;;;;;;35.70;25.50;;;;;;;;;;710346;194;918634;-66
2020/12/23 13:57:58;;;;;;;32.10;23.60;;;;;;;;;;714769;194;915435;-64